Time;durP1;ratioP1;P1;durP2;ratioP2;P2;SDS_P1;SDS_P2;PMS_P1;PMS_P2;Temp;Humidity;BMP_temperature;BMP_pressure;BME280_temperature;BME280_humidity;BME280_pressure;Samples;Min_cycle;Max_cycle;Signal;HPM_P1;HPM_P2
2021/04/07 00:00:33;;;;;;;21.43;4.13;;;;;;;;;;5013802;28;20054;-59
2021/04/07 00:02:58;;;;;;;33.03;7.30;;;;;;;;;;5013086;28;20038;-60
2021/04/07 00:05:34;;;;;;;34.67;6.50;;;;;;;;;;5012211;28;20083;-59
2021/04/07 00:08:01;;;;;;;19.25;3.60;;;;;;;;;;5014022;28;20030;-60
2021/04/07 00:10:29;;;;;;;22.00;2.58;;;;;;;;;;5013330;28;20157;-61
2021/04/07 00:12:55;;;;;;;17.55;3.35;;;;;;;;;;5013949;28;20034;-60
2021/04/07 00:15:21;;;;;;;18.53;2.33;;;;;;;;;;5013933;28;20374;-61
2021/04/07 00:17:47;;;;;;;19.73;4.05;;;;;;;;;;5028293;28;20042;-60
2021/04/07 00:20:14;;;;;;;9.85;1.90;;;;;;;;;;5013863;28;20030;-60
2021/04/07 00:22:39;;;;;;;16.58;3.33;;;;;;;;;;5013012;28;20029;-60
2021/04/07 00:25:05;;;;;;;18.90;1.90;;;;;;;;;;5013648;28;20482;-60
2021/04/07 00:27:32;;;;;;;24.65;5.15;;;;;;;;;;5012793;28;20434;-60
2021/04/07 00:29:57;;;;;;;22.10;5.85;;;;;;;;;;5013385;28;20061;-60
2021/04/07 00:32:23;;;;;;;8.52;2.22;;;;;;;;;;5012238;28;20042;-60
2021/04/07 00:34:48;;;;;;;16.93;3.00;;;;;;;;;;5012832;28;20137;-60
2021/04/07 00:37:13;;;;;;;9.47;2.17;;;;;;;;;;5013343;28;20088;-59
2021/04/07 00:39:39;;;;;;;8.70;2.07;;;;;;;;;;5012729;28;20080;-60
2021/04/07 00:42:05;;;;;;;19.80;2.35;;;;;;;;;;5028551;28;20030;-60
2021/04/07 00:44:31;;;;;;;9.68;2.13;;;;;;;;;;5012765;28;20036;-59
2021/04/07 00:46:56;;;;;;;8.52;1.75;;;;;;;;;;5012079;28;20042;-60
2021/04/07 00:49:21;;;;;;;7.17;1.33;;;;;;;;;;5013131;28;20038;-60
2021/04/07 00:51:47;;;;;;;7.27;1.37;;;;;;;;;;5012709;28;20462;-59
2021/04/07 00:54:12;;;;;;;2.80;1.25;;;;;;;;;;5011854;28;20033;-59
2021/04/07 00:56:38;;;;;;;3.97;1.23;;;;;;;;;;5027589;28;20137;-59
2021/04/07 00:59:03;;;;;;;4.53;2.07;;;;;;;;;;5012511;28;20143;-60
2021/04/07 01:01:29;;;;;;;9.23;1.93;;;;;;;;;;5012359;28;20044;-59
2021/04/07 01:03:54;;;;;;;6.60;1.43;;;;;;;;;;5012792;28;20038;-59
2021/04/07 01:06:19;;;;;;;5.73;1.47;;;;;;;;;;5013303;28;20034;-60
2021/04/07 01:08:45;;;;;;;5.77;1.63;;;;;;;;;;5012772;28;20032;-60
2021/04/07 01:11:10;;;;;;;5.87;1.57;;;;;;;;;;5012897;28;20462;-60
2021/04/07 01:13:35;;;;;;;7.27;1.50;;;;;;;;;;5011212;28;20374;-60
2021/04/07 01:16:01;;;;;;;7.43;2.47;;;;;;;;;;5011187;28;20220;-60
2021/04/07 01:18:26;;;;;;;23.47;5.33;;;;;;;;;;5011505;28;20037;-60
2021/04/07 01:20:52;;;;;;;19.20;4.13;;;;;;;;;;5010857;28;20042;-60
2021/04/07 01:23:18;;;;;;;13.33;2.50;;;;;;;;;;5012683;28;20104;-60
2021/04/07 01:25:43;;;;;;;13.32;2.17;;;;;;;;;;5011724;28;20275;-60
2021/04/07 01:28:09;;;;;;;16.30;3.47;;;;;;;;;;5027639;28;20037;-60
2021/04/07 01:30:45;;;;;;;20.80;4.57;;;;;;;;;;5011988;28;20445;-60
2021/04/07 01:33:24;;;;;;;34.28;7.07;;;;;;;;;;5012448;28;20069;-60
2021/04/07 01:35:50;;;;;;;32.17;5.45;;;;;;;;;;5011406;28;20497;-60
2021/04/07 01:38:15;;;;;;;20.17;4.43;;;;;;;;;;5012216;28;20026;-60
2021/04/07 01:40:42;;;;;;;15.13;2.30;;;;;;;;;;5011664;28;20038;-60
2021/04/07 01:43:07;;;;;;;;;;;;;;;;;;5011180;28;20489;-61
2021/04/07 01:45:33;;;;;;;22.73;6.67;;;;;;;;;;5012060;28;19913;-57
2021/04/07 01:47:58;;;;;;;26.20;4.80;;;;;;;;;;5011868;28;20034;-60
2021/04/07 01:50:24;;;;;;;35.67;6.00;;;;;;;;;;5011064;28;20041;-60
2021/04/07 01:52:49;;;;;;;27.90;5.00;;;;;;;;;;4993971;28;20030;-60
2021/04/07 01:55:14;;;;;;;18.50;6.00;;;;;;;;;;5012099;28;20129;-60
2021/04/07 01:57:40;;;;;;;26.23;6.50;;;;;;;;;;5010025;28;20054;-59
2021/04/07 02:00:07;;;;;;;15.20;3.33;;;;;;;;;;5010869;28;20129;-59
2021/04/07 02:02:37;;;;;;;17.75;4.05;;;;;;;;;;5011184;28;20033;-60
2021/04/07 02:05:04;;;;;;;16.90;3.77;;;;;;;;;;5012158;28;20375;-60
2021/04/07 02:07:29;;;;;;;;;;;;;;;;;;5010968;28;20450;-60
2021/04/07 02:09:55;;;;;;;27.37;6.87;;;;;;;;;;5011339;28;20441;-59
2021/04/07 02:12:20;;;;;;;35.67;7.80;;;;;;;;;;5011966;28;20029;-60
2021/04/07 02:14:45;;;;;;;32.63;6.47;;;;;;;;;;5009891;28;20117;-59
2021/04/07 02:17:11;;;;;;;24.70;6.33;;;;;;;;;;5010644;28;20480;-60
2021/04/07 02:19:36;;;;;;;30.83;7.53;;;;;;;;;;5011100;28;20445;-58
2021/04/07 02:22:02;;;;;;;25.92;6.93;;;;;;;;;;5011587;28;20049;-60
2021/04/07 02:24:28;;;;;;;19.97;5.63;;;;;;;;;;5010590;28;20454;-60
2021/04/07 02:26:53;;;;;;;33.38;7.25;;;;;;;;;;5029973;28;20445;-60
2021/04/07 02:29:19;;;;;;;27.83;6.60;;;;;;;;;;5018312;28;20393;-60
2021/04/07 02:31:44;;;;;;;22.80;6.93;;;;;;;;;;5017711;28;20060;-60
2021/04/07 02:34:11;;;;;;;26.37;7.83;;;;;;;;;;5018178;28;20111;-61
2021/04/07 02:36:36;;;;;;;22.20;4.97;;;;;;;;;;5018209;28;20061;-59
2021/04/07 02:39:02;;;;;;;23.33;3.00;;;;;;;;;;5017490;28;20481;-60
2021/04/07 02:41:27;;;;;;;16.13;3.22;;;;;;;;;;5017931;28;20030;-61
2021/04/07 02:43:53;;;;;;;18.23;2.43;;;;;;;;;;5016245;28;20156;-60
2021/04/07 02:46:18;;;;;;;19.40;2.80;;;;;;;;;;5018201;28;20366;-60
2021/04/07 02:48:43;;;;;;;45.37;4.67;;;;;;;;;;5017311;28;20367;-60
2021/04/07 02:51:09;;;;;;;17.60;2.03;;;;;;;;;;5018048;28;20387;-59
2021/04/07 02:53:34;;;;;;;33.63;3.90;;;;;;;;;;5016259;28;20489;-60
2021/04/07 02:55:59;;;;;;;45.77;6.63;;;;;;;;;;5032583;28;20042;-61
2021/04/07 02:58:25;;;;;;;26.87;4.17;;;;;;;;;;5017787;28;20064;-60
2021/04/07 03:00:50;;;;;;;16.10;3.80;;;;;;;;;;5015784;28;20038;-61
2021/04/07 03:03:15;;;;;;;13.87;1.53;;;;;;;;;;5032753;28;20117;-61
2021/04/07 03:05:41;;;;;;;3.73;1.10;;;;;;;;;;5016395;28;20319;-59
2021/04/07 03:08:06;;;;;;;17.90;3.47;;;;;;;;;;5017721;28;20454;-59
2021/04/07 03:10:32;;;;;;;12.60;3.43;;;;;;;;;;5016587;28;20034;-60
2021/04/07 03:12:57;;;;;;;26.97;6.53;;;;;;;;;;5032722;28;20038;-59
2021/04/07 03:15:22;;;;;;;23.47;4.93;;;;;;;;;;5017551;28;20029;-60
2021/04/07 03:17:48;;;;;;;24.57;6.00;;;;;;;;;;5017092;28;20478;-59
2021/04/07 03:20:14;;;;;;;14.73;3.67;;;;;;;;;;5017745;28;20037;-60
2021/04/07 03:22:39;;;;;;;29.60;4.83;;;;;;;;;;5016296;28;20041;-60
2021/04/07 03:25:05;;;;;;;25.70;5.70;;;;;;;;;;5032382;28;20022;-60
2021/04/07 03:27:30;;;;;;;30.42;7.10;;;;;;;;;;5017651;28;20117;-59
2021/04/07 03:29:59;;;;;;;24.57;6.13;;;;;;;;;;5032353;28;20109;-58
2021/04/07 03:32:24;;;;;;;25.58;5.80;;;;;;;;;;5015961;28;20030;-57
2021/04/07 03:34:50;;;;;;;26.35;6.28;;;;;;;;;;5016753;28;20034;-59
2021/04/07 03:37:15;;;;;;;23.37;5.27;;;;;;;;;;5015575;28;20088;-59
2021/04/07 03:39:40;;;;;;;35.47;5.60;;;;;;;;;;5014495;28;20081;-59
2021/04/07 03:42:06;;;;;;;30.03;7.40;;;;;;;;;;5028681;28;20088;-59
2021/04/07 03:44:31;;;;;;;30.47;6.20;;;;;;;;;;5014262;28;20029;-59
2021/04/07 03:46:56;;;;;;;28.73;5.10;;;;;;;;;;5012300;28;20026;-58
2021/04/07 03:49:22;;;;;;;35.93;6.17;;;;;;;;;;5014182;28;20059;-58
2021/04/07 03:51:47;;;;;;;28.63;6.13;;;;;;;;;;5013302;28;20030;-57
2021/04/07 03:54:13;;;;;;;22.63;4.53;;;;;;;;;;5014236;28;20041;-58
2021/04/07 03:56:38;;;;;;;32.13;2.63;;;;;;;;;;5014200;28;20534;-60
2021/04/07 03:59:04;;;;;;;12.93;3.07;;;;;;;;;;5013475;28;20119;-60
2021/04/07 04:01:29;;;;;;;11.37;1.80;;;;;;;;;;5013789;28;20033;-58
2021/04/07 04:03:54;;;;;;;10.17;1.70;;;;;;;;;;5013020;28;20053;-59
2021/04/07 04:06:20;;;;;;;10.80;2.37;;;;;;;;;;5012451;28;20034;-59
2021/04/07 04:08:45;;;;;;;11.40;3.43;;;;;;;;;;5029153;28;20034;-59
2021/04/07 04:11:10;;;;;;;21.17;5.70;;;;;;;;;;5012032;28;20025;-59
2021/04/07 04:13:36;;;;;;;21.27;4.23;;;;;;;;;;5029256;28;20034;-59
2021/04/07 04:16:01;;;;;;;24.80;5.30;;;;;;;;;;5013067;28;20120;-60
2021/04/07 04:18:27;;;;;;;42.17;7.40;;;;;;;;;;5028973;28;20121;-59
2021/04/07 04:20:52;;;;;;;21.60;5.40;;;;;;;;;;5013206;28;20037;-59
2021/04/07 04:23:17;;;;;;;28.00;4.13;;;;;;;;;;5013564;28;20032;-59
2021/04/07 04:25:43;;;;;;;25.53;5.67;;;;;;;;;;5013763;28;20064;-60
2021/04/07 04:28:08;;;;;;;35.97;9.23;;;;;;;;;;5013165;28;20034;-60
2021/04/07 04:30:33;;;;;;;25.53;6.00;;;;;;;;;;5013547;28;20030;-60
2021/04/07 04:32:59;;;;;;;24.57;6.30;;;;;;;;;;5011612;28;20042;-60
2021/04/07 04:35:24;;;;;;;28.13;7.40;;;;;;;;;;5011975;28;20053;-60
2021/04/07 04:37:50;;;;;;;23.53;6.57;;;;;;;;;;5011988;28;20038;-61
2021/04/07 04:40:16;;;;;;;31.50;8.07;;;;;;;;;;5012570;28;20263;-60
2021/04/07 04:42:41;;;;;;;31.40;8.77;;;;;;;;;;5011786;28;20034;-60
2021/04/07 04:45:07;;;;;;;23.37;8.37;;;;;;;;;;5012623;28;20037;-61
2021/04/07 04:47:33;;;;;;;35.50;8.63;;;;;;;;;;5013231;28;20025;-61
2021/04/07 04:49:58;;;;;;;20.88;6.18;;;;;;;;;;5012085;28;20036;-60
2021/04/07 04:52:24;;;;;;;25.40;6.80;;;;;;;;;;5013321;28;20030;-61
2021/04/07 04:54:49;;;;;;;24.30;6.23;;;;;;;;;;5013354;28;20080;-60
2021/04/07 04:57:15;;;;;;;20.97;7.37;;;;;;;;;;5012431;28;20030;-61
2021/04/07 04:59:41;;;;;;;29.92;6.88;;;;;;;;;;5013100;28;20053;-60
2021/04/07 05:02:06;;;;;;;18.03;4.30;;;;;;;;;;5011135;28;20195;-60
2021/04/07 05:04:31;;;;;;;22.47;8.07;;;;;;;;;;5012999;28;20108;-60
2021/04/07 05:06:57;;;;;;;30.10;7.37;;;;;;;;;;5012330;28;20058;-60
2021/04/07 05:09:22;;;;;;;20.70;5.97;;;;;;;;;;5012446;28;20038;-61
2021/04/07 05:11:48;;;;;;;17.20;5.00;;;;;;;;;;5011389;28;20071;-60
2021/04/07 05:14:13;;;;;;;28.13;5.20;;;;;;;;;;5013170;28;20076;-60
2021/04/07 05:16:38;;;;;;;16.53;5.23;;;;;;;;;;5015775;28;20466;-61
2021/04/07 05:19:04;;;;;;;29.57;8.70;;;;;;;;;;5028299;28;20311;-61
2021/04/07 05:21:29;;;;;;;23.07;7.53;;;;;;;;;;5012861;28;20037;-60
2021/04/07 05:23:55;;;;;;;15.57;6.57;;;;;;;;;;5012921;28;20379;-61
2021/04/07 05:26:20;;;;;;;25.80;6.63;;;;;;;;;;5027807;28;20038;-62
2021/04/07 05:28:46;;;;;;;17.50;5.53;;;;;;;;;;5015295;28;20026;-61
2021/04/07 05:31:12;;;;;;;17.60;4.78;;;;;;;;;;5012003;28;20050;-60
2021/04/07 05:33:39;;;;;;;26.55;6.20;;;;;;;;;;5012985;28;20029;-61
2021/04/07 05:36:07;;;;;;;26.58;6.05;;;;;;;;;;5010428;28;20088;-60
2021/04/07 05:38:33;;;;;;;31.92;8.30;;;;;;;;;;5012330;28;20566;-60
2021/04/07 05:40:59;;;;;;;29.17;8.77;;;;;;;;;;5011574;28;20105;-60
2021/04/07 05:43:25;;;;;;;28.45;9.00;;;;;;;;;;5012422;28;20030;-60
2021/04/07 05:45:50;;;;;;;46.58;12.00;;;;;;;;;;5012530;28;20038;-60
2021/04/07 05:48:16;;;;;;;52.87;13.00;;;;;;;;;;5010207;28;20052;-60
2021/04/07 05:50:42;;;;;;;59.73;13.17;;;;;;;;;;5012087;28;20172;-60
2021/04/07 05:53:08;;;;;;;38.58;12.73;;;;;;;;;;5009973;28;20125;-60
2021/04/07 05:55:33;;;;;;;25.80;8.77;;;;;;;;;;5011868;28;20113;-60
2021/04/07 05:57:59;;;;;;;31.83;12.13;;;;;;;;;;5011422;28;20348;-60
2021/04/07 06:00:25;;;;;;;19.13;8.30;;;;;;;;;;5011657;28;20275;-60
2021/04/07 06:02:54;;;;;;;11.75;6.50;;;;;;;;;;5009955;28;20084;-60
2021/04/07 06:05:20;;;;;;;11.98;7.38;;;;;;;;;;5011219;28;20234;-59
2021/04/07 06:07:46;;;;;;;19.15;6.60;;;;;;;;;;5010435;28;20406;-59
2021/04/07 06:10:11;;;;;;;27.53;8.40;;;;;;;;;;5011194;28;20037;-60
2021/04/07 06:12:37;;;;;;;23.53;8.57;;;;;;;;;;5011519;28;20044;-58
2021/04/07 06:15:03;;;;;;;19.50;8.40;;;;;;;;;;5010778;28;20633;-59
2021/04/07 06:17:28;;;;;;;29.40;11.65;;;;;;;;;;5010394;28;20390;-58
2021/04/07 06:19:54;;;;;;;14.93;7.60;;;;;;;;;;5010215;28;20026;-59
2021/04/07 06:22:19;;;;;;;14.03;7.30;;;;;;;;;;5010736;28;20041;-59
2021/04/07 06:24:44;;;;;;;15.43;6.70;;;;;;;;;;5011188;28;20026;-59
2021/04/07 06:27:10;;;;;;;16.90;7.57;;;;;;;;;;5010852;28;20099;-60
2021/04/07 06:29:35;;;;;;;17.73;6.47;;;;;;;;;;5011500;28;20046;-61
2021/04/07 06:32:00;;;;;;;17.53;6.93;;;;;;;;;;5011633;28;20037;-61
2021/04/07 06:34:25;;;;;;;14.90;6.27;;;;;;;;;;5010478;28;20025;-62
2021/04/07 06:36:51;;;;;;;14.97;7.13;;;;;;;;;;5011253;28;20054;-62
2021/04/07 06:39:16;;;;;;;16.70;6.10;;;;;;;;;;5010668;28;20045;-62
2021/04/07 06:41:42;;;;;;;26.40;6.47;;;;;;;;;;5010126;28;20279;-62
2021/04/07 06:44:08;;;;;;;21.13;6.40;;;;;;;;;;5010655;28;20026;-63
2021/04/07 06:46:33;;;;;;;26.35;7.22;;;;;;;;;;5010079;28;20087;-65
2021/04/07 06:49:00;;;;;;;28.93;7.97;;;;;;;;;;5010964;28;20394;-64
2021/04/07 06:51:25;;;;;;;26.65;7.05;;;;;;;;;;5010513;28;20578;-64
2021/04/07 06:53:51;;;;;;;19.13;5.10;;;;;;;;;;5011201;28;20109;-65
2021/04/07 06:56:17;;;;;;;19.83;5.40;;;;;;;;;;5009299;28;20113;-64
2021/04/07 06:58:43;;;;;;;26.92;5.38;;;;;;;;;;5009453;28;20129;-64
2021/04/07 07:01:08;;;;;;;17.48;5.22;;;;;;;;;;5010644;28;20041;-64
2021/04/07 07:03:33;;;;;;;18.77;4.77;;;;;;;;;;5011300;28;20112;-65
2021/04/07 07:05:59;;;;;;;16.30;2.77;;;;;;;;;;5026153;28;20034;-63
2021/04/07 07:08:24;;;;;;;18.40;3.83;;;;;;;;;;5009101;28;20033;-63
2021/04/07 07:10:51;;;;;;;8.23;1.97;;;;;;;;;;5009854;28;20040;-62
2021/04/07 07:13:18;;;;;;;9.88;2.33;;;;;;;;;;4995064;28;20116;-62
2021/04/07 07:15:43;;;;;;;12.60;2.20;;;;;;;;;;5013634;28;20026;-61
2021/04/07 07:18:09;;;;;;;10.57;1.98;;;;;;;;;;5014254;28;20438;-60
2021/04/07 07:20:35;;;;;;;11.03;1.93;;;;;;;;;;5014995;28;20038;-63
2021/04/07 07:23:01;;;;;;;14.02;2.85;;;;;;;;;;5014829;28;20042;-62
2021/04/07 07:25:27;;;;;;;12.65;2.85;;;;;;;;;;5014129;28;20030;-62
2021/04/07 07:27:57;;;;;;;14.77;2.45;;;;;;;;;;5013551;28;20042;-62
2021/04/07 07:30:22;;;;;;;12.45;2.25;;;;;;;;;;5014294;28;20462;-61
2021/04/07 07:32:48;;;;;;;15.33;4.50;;;;;;;;;;5014046;28;20107;-61
2021/04/07 07:35:14;;;;;;;27.90;3.77;;;;;;;;;;5012575;28;20046;-60
2021/04/07 07:37:40;;;;;;;12.50;2.08;;;;;;;;;;5014645;28;20098;-59
2021/04/07 07:40:08;;;;;;;8.27;2.35;;;;;;;;;;5013286;28;20118;-59
2021/04/07 07:42:33;;;;;;;15.80;2.90;;;;;;;;;;5013670;28;20038;-62
2021/04/07 07:44:59;;;;;;;15.98;2.10;;;;;;;;;;5014543;28;20136;-61
2021/04/07 07:47:29;;;;;;;10.45;2.25;;;;;;;;;;5012345;28;20447;-61
2021/04/07 07:49:55;;;;;;;15.35;3.63;;;;;;;;;;5014270;28;20120;-61
2021/04/07 07:52:33;;;;;;;17.87;3.37;;;;;;;;;;5013418;28;20104;-61
2021/04/07 07:55:00;;;;;;;18.45;2.92;;;;;;;;;;5012995;28;20045;-61
2021/04/07 07:57:25;;;;;;;24.88;3.70;;;;;;;;;;5028811;28;20041;-60
2021/04/07 07:59:56;;;;;;;19.53;3.53;;;;;;;;;;5014176;28;20053;-60
2021/04/07 08:02:25;;;;;;;24.73;4.32;;;;;;;;;;5013658;28;20267;-60
2021/04/07 08:04:51;;;;;;;25.75;4.07;;;;;;;;;;5014092;28;20058;-61
2021/04/07 08:07:16;;;;;;;27.00;4.63;;;;;;;;;;5012162;28;20036;-61
2021/04/07 08:09:42;;;;;;;19.17;3.15;;;;;;;;;;5013938;28;20462;-61
2021/04/07 08:12:08;;;;;;;29.50;4.13;;;;;;;;;;5029051;28;20409;-60
2021/04/07 08:14:34;;;;;;;;;;;;;;;;;;5013639;28;20042;-60
2021/04/07 08:16:59;;;;;;;25.80;4.23;;;;;;;;;;5013516;28;20040;-60
2021/04/07 08:19:24;;;;;;;26.07;5.90;;;;;;;;;;5011811;28;20536;-61
2021/04/07 08:21:50;;;;;;;32.87;4.33;;;;;;;;;;5029044;28;20478;-60
2021/04/07 08:24:17;;;;;;;27.90;4.60;;;;;;;;;;5012261;28;20450;-60
2021/04/07 08:26:43;;;;;;;30.45;5.15;;;;;;;;;;5012171;28;20190;-60
2021/04/07 08:29:09;;;;;;;37.80;4.20;;;;;;;;;;5028702;28;20037;-60
2021/04/07 08:31:36;;;;;;;30.67;8.13;;;;;;;;;;5012610;28;20368;-60
2021/04/07 08:34:03;;;;;;;31.42;4.05;;;;;;;;;;5013430;28;20109;-60
2021/04/07 08:36:28;;;;;;;39.65;6.13;;;;;;;;;;5011462;28;20030;-60
2021/04/07 08:39:01;;;;;;;30.63;3.65;;;;;;;;;;5013257;28;20045;-60
2021/04/07 08:41:27;;;;;;;17.42;4.15;;;;;;;;;;5012576;28;20470;-59
2021/04/07 08:43:53;;;;;;;26.90;4.07;;;;;;;;;;5013464;28;20163;-60
2021/04/07 08:46:28;;;;;;;25.75;3.40;;;;;;;;;;5011487;28;20252;-58
2021/04/07 08:48:53;;;;;;;34.30;3.83;;;;;;;;;;5013390;28;20088;-60
2021/04/07 08:51:21;;;;;;;29.80;5.25;;;;;;;;;;5012616;28;20049;-64
2021/04/07 08:53:49;;;;;;;26.70;4.50;;;;;;;;;;5013025;28;20065;-60
2021/04/07 08:56:15;;;;;;;35.17;3.80;;;;;;;;;;5012872;28;20030;-60
2021/04/07 08:58:40;;;;;;;;;;;;;;;;;;5012343;28;20056;-59
2021/04/07 09:01:17;;;;;;;34.57;4.70;;;;;;;;;;5013255;28;19909;-60
2021/04/07 09:03:42;;;;;;;46.30;5.80;;;;;;;;;;5012089;28;20032;-60
2021/04/07 09:06:12;;;;;;;34.20;4.27;;;;;;;;;;5012968;28;20522;-60
2021/04/07 09:08:37;;;;;;;38.45;5.40;;;;;;;;;;5012228;28;20072;-60
2021/04/07 09:11:02;;;;;;;31.67;4.07;;;;;;;;;;5011344;28;20422;-60
2021/04/07 09:13:33;;;;;;;30.73;5.73;;;;;;;;;;5010846;28;20030;-59
2021/04/07 09:16:06;;;;;;;36.80;7.07;;;;;;;;;;5012904;28;20025;-60
2021/04/07 09:18:41;;;;;;;31.67;4.93;;;;;;;;;;5011985;28;20095;-60
2021/04/07 09:21:08;;;;;;;30.60;4.82;;;;;;;;;;5012755;28;20037;-61
2021/04/07 09:23:34;;;;;;;37.38;4.80;;;;;;;;;;5011937;28;20128;-60
2021/04/07 09:26:00;;;;;;;;;;;;;;;;;;5011821;28;20022;-60
2021/04/07 09:28:32;;;;;;;42.80;5.30;;;;;;;;;;5011849;28;19909;-60
2021/04/07 09:31:03;;;;;;;55.78;7.47;;;;;;;;;;5011977;28;20124;-61
2021/04/07 09:33:29;;;;;;;59.67;6.93;;;;;;;;;;5012038;28;20029;-59
2021/04/07 09:35:58;;;;;;;29.67;4.43;;;;;;;;;;5012409;28;20022;-60
2021/04/07 09:38:24;;;;;;;27.98;5.35;;;;;;;;;;5011386;28;20494;-58
2021/04/07 09:41:00;;;;;;;21.90;2.83;;;;;;;;;;5010884;28;20070;-61
2021/04/07 09:43:25;;;;;;;30.00;4.75;;;;;;;;;;5011775;28;20072;-59
2021/04/07 09:45:51;;;;;;;32.90;5.07;;;;;;;;;;5010759;28;20415;-60
2021/04/07 09:48:16;;;;;;;44.07;6.43;;;;;;;;;;5012273;28;20034;-60
2021/04/07 09:50:41;;;;;;;39.47;4.63;;;;;;;;;;5011358;28;20124;-61
2021/04/07 09:53:07;;;;;;;32.93;4.20;;;;;;;;;;5012358;28;20493;-60
2021/04/07 09:55:32;;;;;;;31.30;4.53;;;;;;;;;;5011627;28;20060;-59
2021/04/07 09:57:58;;;;;;;41.17;6.37;;;;;;;;;;5010956;28;20096;-61
2021/04/07 10:00:28;;;;;;;37.15;5.55;;;;;;;;;;5012194;28;20100;-61
2021/04/07 10:02:53;;;;;;;36.22;4.88;;;;;;;;;;5012224;28;20029;-61
2021/04/07 10:05:27;;;;;;;34.67;7.90;;;;;;;;;;5011842;28;20060;-60
2021/04/07 10:07:53;;;;;;;24.02;3.20;;;;;;;;;;5010734;28;20038;-60
2021/04/07 10:10:22;;;;;;;28.83;3.75;;;;;;;;;;5011974;28;20556;-60
2021/04/07 10:12:47;;;;;;;20.60;3.72;;;;;;;;;;5009888;28;20038;-60
2021/04/07 10:15:16;;;;;;;18.43;3.57;;;;;;;;;;5011675;28;20386;-60
2021/04/07 10:17:42;;;;;;;27.40;4.13;;;;;;;;;;5009617;28;20030;-60
2021/04/07 10:20:11;;;;;;;18.87;3.30;;;;;;;;;;5010536;28;20451;-60
2021/04/07 10:22:37;;;;;;;32.10;4.72;;;;;;;;;;5011082;28;20030;-60
2021/04/07 10:25:12;;;;;;;25.02;3.63;;;;;;;;;;5011610;28;20037;-60
2021/04/07 10:27:39;;;;;;;37.22;4.88;;;;;;;;;;5011076;28;20497;-60
2021/04/07 10:30:09;;;;;;;36.25;5.88;;;;;;;;;;5011091;28;20105;-61
2021/04/07 10:32:50;;;;;;;29.33;4.30;;;;;;;;;;5010545;28;20041;-61
2021/04/07 10:35:23;;;;;;;30.58;4.03;;;;;;;;;;5011611;28;20041;-59
2021/04/07 10:37:56;;;;;;;33.25;4.55;;;;;;;;;;5010564;28;20352;-60
2021/04/07 10:40:22;;;;;;;44.00;6.10;;;;;;;;;;5011305;28;20390;-60
2021/04/07 10:42:48;;;;;;;24.23;3.40;;;;;;;;;;5011049;28;20022;-60
2021/04/07 10:45:14;;;;;;;25.00;3.67;;;;;;;;;;5011613;28;20041;-60
2021/04/07 10:47:39;;;;;;;31.88;5.43;;;;;;;;;;5010750;28;20109;-60
2021/04/07 10:50:06;;;;;;;13.20;2.50;;;;;;;;;;5014273;28;20113;-60
2021/04/07 10:52:39;;;;;;;21.98;2.75;;;;;;;;;;5013430;28;20062;-60
2021/04/07 10:55:06;;;;;;;28.05;3.83;;;;;;;;;;5014070;28;20327;-62
2021/04/07 10:57:36;;;;;;;25.05;4.45;;;;;;;;;;5014645;28;20038;-58
2021/04/07 11:00:06;;;;;;;24.05;3.85;;;;;;;;;;5015524;28;20050;-60
2021/04/07 11:02:39;;;;;;;25.02;3.15;;;;;;;;;;5012872;28;20038;-59
2021/04/07 11:05:12;;;;;;;26.50;2.90;;;;;;;;;;5015240;28;20033;-60
2021/04/07 11:07:37;;;;;;;23.40;3.00;;;;;;;;;;5014644;28;20050;-59
2021/04/07 11:10:05;;;;;;;14.90;3.03;;;;;;;;;;5030480;28;20509;-62
2021/04/07 11:12:30;;;;;;;11.77;3.33;;;;;;;;;;5014913;28;20065;-60
2021/04/07 11:14:56;;;;;;;21.27;3.17;;;;;;;;;;5031532;28;20528;-60
2021/04/07 11:17:21;;;;;;;24.20;3.77;;;;;;;;;;5032024;28;20030;-60
2021/04/07 11:19:47;;;;;;;17.50;2.77;;;;;;;;;;5013891;28;20463;-60
2021/04/07 11:22:12;;;;;;;22.15;3.58;;;;;;;;;;5015433;28;20034;-60
2021/04/07 11:24:38;;;;;;;20.23;2.97;;;;;;;;;;5013958;28;20371;-59
2021/04/07 11:27:06;;;;;;;16.50;3.00;;;;;;;;;;5014691;28;20489;-60
2021/04/07 11:29:31;;;;;;;30.67;3.72;;;;;;;;;;5014727;28;20426;-60
2021/04/07 11:31:58;;;;;;;21.20;2.60;;;;;;;;;;5014040;28;20113;-61
2021/04/07 11:34:29;;;;;;;16.02;2.25;;;;;;;;;;5029743;28;20125;-60
2021/04/07 11:37:48;;;;;;;14.52;2.20;;;;;;;;;;5013912;28;20458;-60
2021/04/07 11:39:51;;;;;;;21.20;3.40;;;;;;;;;;5005215;28;20141;-60
2021/04/07 11:45:09;;;;;;;17.67;2.40;;;;;;;;;;5011313;28;20239;-59
2021/04/07 11:47:34;;;;;;;21.20;2.83;;;;;;;;;;5014444;28;20505;-60
2021/04/07 11:50:00;;;;;;;14.10;2.50;;;;;;;;;;5013831;28;20109;-60
2021/04/07 11:52:31;;;;;;;18.70;3.90;;;;;;;;;;5029450;28;20485;-59
2021/04/07 11:54:56;;;;;;;22.88;3.83;;;;;;;;;;5013521;28;20049;-59
2021/04/07 11:57:22;;;;;;;21.00;2.87;;;;;;;;;;5012841;28;20038;-60
2021/04/07 11:59:47;;;;;;;24.70;4.13;;;;;;;;;;5012217;28;20314;-60
2021/04/07 12:02:12;;;;;;;15.87;2.30;;;;;;;;;;5029256;28;20113;-59
2021/04/07 12:04:38;;;;;;;13.93;2.37;;;;;;;;;;5013359;28;20100;-59
2021/04/07 12:07:03;;;;;;;19.65;2.42;;;;;;;;;;5013882;28;20030;-61
2021/04/07 12:09:29;;;;;;;18.03;2.60;;;;;;;;;;5012473;28;20120;-60
2021/04/07 12:11:55;;;;;;;11.23;2.38;;;;;;;;;;5011911;28;20129;-59
2021/04/07 12:14:20;;;;;;;15.17;2.33;;;;;;;;;;5014168;28;20542;-60
2021/04/07 12:16:46;;;;;;;15.67;2.70;;;;;;;;;;5013316;28;20041;-59
2021/04/07 12:19:11;;;;;;;12.37;2.13;;;;;;;;;;5029082;28;20046;-59
2021/04/07 12:21:37;;;;;;;8.33;2.07;;;;;;;;;;5012472;28;20034;-60
2021/04/07 12:24:03;;;;;;;14.25;2.20;;;;;;;;;;5012991;28;20641;-60
2021/04/07 12:26:29;;;;;;;14.45;3.08;;;;;;;;;;5012230;28;20057;-61
2021/04/07 12:28:56;;;;;;;16.42;2.63;;;;;;;;;;5012838;28;20041;-60
2021/04/07 12:31:22;;;;;;;15.07;2.95;;;;;;;;;;5012194;28;20443;-60
2021/04/07 12:33:55;;;;;;;15.17;3.57;;;;;;;;;;5011513;28;20064;-61
2021/04/07 12:36:23;;;;;;;18.20;2.83;;;;;;;;;;5013460;28;20038;-61
2021/04/07 12:38:48;;;;;;;10.35;2.00;;;;;;;;;;5012932;28;20109;-59
2021/04/07 12:41:20;;;;;;;11.13;2.40;;;;;;;;;;5011897;28;20120;-60
2021/04/07 12:43:46;;;;;;;11.18;2.95;;;;;;;;;;5012751;28;20113;-59
2021/04/07 12:46:11;;;;;;;16.13;3.07;;;;;;;;;;5013278;28;20172;-59
2021/04/07 12:48:36;;;;;;;14.97;2.03;;;;;;;;;;5028147;28;20423;-61
2021/04/07 12:51:02;;;;;;;11.87;2.10;;;;;;;;;;5011252;28;20037;-59
2021/04/07 12:53:27;;;;;;;18.92;2.63;;;;;;;;;;5011652;28;20017;-59
2021/04/07 12:55:53;;;;;;;16.47;2.63;;;;;;;;;;5010945;28;20033;-59
2021/04/07 12:58:18;;;;;;;12.20;2.83;;;;;;;;;;5028066;28;20092;-59
2021/04/07 13:00:44;;;;;;;12.67;1.93;;;;;;;;;;5012303;28;20393;-60
2021/04/07 13:03:09;;;;;;;18.33;2.80;;;;;;;;;;5012867;28;20372;-60
2021/04/07 13:05:35;;;;;;;15.17;2.77;;;;;;;;;;5011558;28;20038;-60
2021/04/07 13:08:00;;;;;;;12.97;2.57;;;;;;;;;;5011736;28;20458;-60
2021/04/07 13:10:25;;;;;;;14.03;3.00;;;;;;;;;;5010839;28;20063;-60
2021/04/07 13:12:51;;;;;;;19.00;3.33;;;;;;;;;;5010737;28;20022;-60
2021/04/07 13:15:17;;;;;;;7.43;1.75;;;;;;;;;;5012747;28;20126;-60
2021/04/07 13:17:42;;;;;;;13.80;2.70;;;;;;;;;;5011220;28;20104;-60
2021/04/07 13:20:11;;;;;;;5.07;1.50;;;;;;;;;;5011817;28;20046;-60
2021/04/07 13:22:36;;;;;;;10.93;2.00;;;;;;;;;;5010958;28;20450;-60
2021/04/07 13:25:02;;;;;;;18.60;4.33;;;;;;;;;;5010520;28;20064;-60
2021/04/07 13:27:29;;;;;;;11.77;2.80;;;;;;;;;;5012162;28;20034;-61
2021/04/07 13:29:54;;;;;;;;;;;;;;;;;;5012379;28;20058;-60
2021/04/07 13:32:21;;;;;;;12.87;2.63;;;;;;;;;;5012045;28;19909;-59
2021/04/07 13:37:23;;;;;;;8.60;2.03;;;;;;;;;;5012306;28;20333;-60
2021/04/07 13:40:00;;;;;;;15.20;3.80;;;;;;;;;;5010367;28;20299;-60
2021/04/07 13:42:44;;;;;;;9.37;1.97;;;;;;;;;;5010938;28;20263;-61
2021/04/07 13:45:10;;;;;;;9.07;2.20;;;;;;;;;;5010198;28;20338;-60
2021/04/07 13:47:36;;;;;;;10.25;2.20;;;;;;;;;;5011901;28;20346;-60
2021/04/07 13:50:03;;;;;;;8.60;2.40;;;;;;;;;;5010667;28;20045;-60
2021/04/07 13:52:28;;;;;;;16.88;2.58;;;;;;;;;;5011663;28;20247;-60
2021/04/07 13:54:55;;;;;;;9.40;2.20;;;;;;;;;;5009966;28;20040;-59
2021/04/07 13:57:27;;;;;;;16.47;2.87;;;;;;;;;;5011679;28;20076;-59
2021/04/07 13:59:54;;;;;;;15.13;2.27;;;;;;;;;;5010864;28;20339;-59
2021/04/07 14:02:20;;;;;;;9.63;1.77;;;;;;;;;;5026904;28;20271;-59
2021/04/07 14:04:45;;;;;;;8.15;2.75;;;;;;;;;;5010413;28;20046;-60
2021/04/07 14:07:14;;;;;;;14.87;2.37;;;;;;;;;;5011255;28;20534;-60
2021/04/07 14:09:39;;;;;;;12.03;2.40;;;;;;;;;;5011647;28;20064;-60
2021/04/07 14:12:05;;;;;;;6.88;2.22;;;;;;;;;;5009847;28;20255;-60
2021/04/07 14:14:30;;;;;;;5.90;2.20;;;;;;;;;;5011810;28;20038;-60
2021/04/07 14:16:56;;;;;;;14.23;3.38;;;;;;;;;;5011042;28;20350;-60
2021/04/07 14:19:21;;;;;;;4.93;1.60;;;;;;;;;;5027029;28;20042;-60
2021/04/07 14:21:47;;;;;;;10.70;3.50;;;;;;;;;;5011109;28;20038;-60
2021/04/07 14:24:12;;;;;;;10.23;2.30;;;;;;;;;;5010819;28;20030;-60
2021/04/07 14:26:37;;;;;;;11.40;2.70;;;;;;;;;;5011592;28;20045;-60
2021/04/07 14:29:04;;;;;;;12.10;2.50;;;;;;;;;;5011154;28;20435;-60
2021/04/07 14:31:29;;;;;;;7.75;2.30;;;;;;;;;;5011076;28;20454;-60
2021/04/07 14:33:54;;;;;;;11.50;2.50;;;;;;;;;;5009619;28;20042;-59